createdAt,value
2022-12-14T00:01:36.613Z,66.00
2022-12-14T00:04:03.743Z,65.99
2022-12-14T00:06:32.083Z,66.01
2022-12-14T00:09:00.479Z,66.29
2022-12-14T00:11:27.390Z,66.49
2022-12-14T00:13:56.255Z,66.72
2022-12-14T00:16:23.931Z,66.94
2022-12-14T00:18:52.588Z,67.07
2022-12-14T00:21:19.737Z,67.18
2022-12-14T00:23:47.124Z,66.70
2022-12-14T00:26:18.382Z,66.57
2022-12-14T00:28:45.653Z,66.70
2022-12-14T00:31:15.658Z,66.41
2022-12-14T00:33:42.614Z,66.51
2022-12-14T00:36:10.108Z,66.25
2022-12-14T00:38:40.292Z,66.30
2022-12-14T00:41:07.195Z,66.33
2022-12-14T00:43:34.029Z,66.34
2022-12-14T00:46:00.954Z,66.71
2022-12-14T00:48:28.052Z,66.78
2022-12-14T00:50:55.487Z,66.82
2022-12-14T00:53:22.938Z,66.45
2022-12-14T00:55:50.041Z,66.39
2022-12-14T00:58:19.482Z,66.05
2022-12-14T01:00:46.653Z,66.06
2022-12-14T01:03:13.644Z,65.86
2022-12-14T01:05:41.161Z,66.22
2022-12-14T01:08:08.163Z,66.10
2022-12-14T01:10:38.071Z,66.38
2022-12-14T01:13:04.911Z,66.54
2022-12-14T01:15:31.747Z,66.53
2022-12-14T01:17:58.530Z,66.39
2022-12-14T01:20:25.393Z,66.49
2022-12-14T01:22:56.333Z,66.68
2022-12-14T01:25:23.243Z,66.82
2022-12-14T01:27:50.210Z,66.79
2022-12-14T01:30:19.382Z,66.66
2022-12-14T01:32:47.088Z,66.57
2022-12-14T01:35:14.056Z,66.64
2022-12-14T01:37:40.908Z,66.77
2022-12-14T01:40:08.325Z,66.51
2022-12-14T01:42:36.184Z,66.53
2022-12-14T01:45:03.064Z,66.64
2022-12-14T01:47:39.645Z,66.49
2022-12-14T01:50:30.503Z,66.67
2022-12-14T01:53:00.125Z,66.82
2022-12-14T01:55:49.547Z,66.87
2022-12-14T01:58:23.172Z,66.75
2022-12-14T02:00:52.670Z,66.58
2022-12-14T02:03:25.551Z,66.43
2022-12-14T02:05:59.384Z,66.32
2022-12-14T02:08:26.303Z,66.32
2022-12-14T02:10:53.538Z,66.10
2022-12-14T02:13:32.994Z,66.13
2022-12-14T02:16:00.001Z,65.99
2022-12-14T02:18:28.638Z,66.11
2022-12-14T02:21:35.291Z,66.25
2022-12-14T02:24:08.902Z,66.24
2022-12-14T02:26:54.083Z,66.34
2022-12-14T02:29:33.048Z,66.37
2022-12-14T02:32:18.920Z,66.36
2022-12-14T02:35:37.992Z,66.55
2022-12-14T02:38:11.507Z,66.49
2022-12-14T02:41:06.390Z,66.05
2022-12-14T02:43:58.810Z,66.15
2022-12-14T02:46:29.345Z,66.07
2022-12-14T02:48:56.187Z,66.21
2022-12-14T02:51:32.607Z,66.37
2022-12-14T02:54:21.015Z,66.38
2022-12-14T02:56:51.536Z,66.57
2022-12-14T02:59:18.353Z,66.54
2022-12-14T03:01:47.212Z,66.51
2022-12-14T03:04:14.740Z,66.37
2022-12-14T03:07:00.160Z,66.57
2022-12-14T03:09:27.487Z,66.74
2022-12-14T03:12:07.589Z,66.73
2022-12-14T03:14:36.891Z,66.54
2022-12-14T03:17:10.665Z,66.35
2022-12-14T03:19:40.903Z,66.08
2022-12-14T03:22:09.238Z,66.06
2022-12-14T03:24:42.101Z,65.68
2022-12-14T03:27:13.322Z,65.97
2022-12-14T03:29:43.307Z,66.05
2022-12-14T03:32:12.262Z,66.17
2022-12-14T03:34:47.317Z,66.32
2022-12-14T03:37:17.724Z,66.19
2022-12-14T03:39:44.547Z,66.32
2022-12-14T03:42:33.320Z,66.36
2022-12-14T03:45:05.051Z,66.47
2022-12-14T03:48:02.299Z,66.27
2022-12-14T03:50:37.815Z,65.93
2022-12-14T03:53:32.531Z,65.77
2022-12-14T03:56:37.874Z,65.64
2022-12-14T03:59:10.052Z,65.62
2022-12-14T04:01:55.232Z,65.78
2022-12-14T04:04:27.780Z,65.77
2022-12-14T04:07:23.507Z,65.81
2022-12-14T04:10:00.167Z,65.88
2022-12-14T04:12:51.546Z,65.79
2022-12-14T04:15:50.016Z,65.78
2022-12-14T04:18:44.127Z,65.94
2022-12-14T04:21:13.738Z,66.02
2022-12-14T04:24:01.716Z,65.69
2022-12-14T04:26:31.284Z,65.27
2022-12-14T04:29:18.792Z,65.25
2022-12-14T04:31:49.321Z,65.00
2022-12-14T04:34:18.600Z,65.05
2022-12-14T04:37:05.133Z,64.94
2022-12-14T04:39:41.456Z,65.15
2022-12-14T04:42:10.443Z,65.23
2022-12-14T04:44:39.126Z,65.50
2022-12-14T04:47:07.886Z,65.65
2022-12-14T04:49:51.106Z,65.58
2022-12-14T04:52:19.239Z,65.67
2022-12-14T04:54:56.891Z,65.89
2022-12-14T04:57:23.729Z,65.95
2022-12-14T04:59:50.544Z,66.15
2022-12-14T05:02:36.361Z,66.45
2022-12-14T05:05:08.796Z,66.47
2022-12-14T05:07:45.103Z,66.61
2022-12-14T05:10:27.865Z,66.49
2022-12-14T05:13:09.015Z,66.30
2022-12-14T05:15:39.686Z,66.11
2022-12-14T05:18:09.756Z,66.04
2022-12-14T05:20:36.733Z,65.82
2022-12-14T05:23:03.552Z,65.75
2022-12-14T05:25:30.420Z,65.72
2022-12-14T05:27:57.293Z,65.62
2022-12-14T05:32:11.031Z,65.88
2022-12-14T05:34:38.033Z,66.16
2022-12-14T05:37:04.897Z,66.43
2022-12-14T05:39:31.770Z,66.40
2022-12-14T05:41:58.649Z,66.27
2022-12-14T05:44:25.526Z,66.07
2022-12-14T05:46:52.428Z,66.08
2022-12-14T05:49:19.334Z,66.05
2022-12-14T05:51:46.246Z,66.10
2022-12-14T05:54:13.090Z,65.98
2022-12-14T05:56:39.947Z,65.79
2022-12-14T05:59:09.181Z,65.48
2022-12-14T06:01:36.105Z,65.31
2022-12-14T06:04:05.529Z,65.14
2022-12-14T06:06:33.139Z,65.24
2022-12-14T06:08:59.996Z,65.25
2022-12-14T06:11:26.938Z,65.36
2022-12-14T06:13:53.810Z,65.62
2022-12-14T06:16:24.843Z,65.98
2022-12-14T06:18:53.642Z,66.28
2022-12-14T06:21:22.028Z,66.49
2022-12-14T06:23:53.796Z,66.60
2022-12-14T06:26:20.841Z,66.70
2022-12-14T06:28:49.984Z,66.90
2022-12-14T06:31:18.473Z,66.86
2022-12-14T06:33:45.499Z,66.49
2022-12-14T06:36:19.789Z,66.47
2022-12-14T06:38:50.073Z,66.74
2022-12-14T06:41:17.297Z,66.91
2022-12-14T06:43:44.216Z,67.08
2022-12-14T06:46:15.571Z,67.20
2022-12-14T06:48:43.048Z,67.23
2022-12-14T06:51:09.944Z,67.22
2022-12-14T06:53:39.111Z,67.37
2022-12-14T06:56:10.515Z,67.30
2022-12-14T06:58:37.704Z,67.28
2022-12-14T07:01:05.862Z,67.27
2022-12-14T07:03:32.975Z,67.25
2022-12-14T07:06:00.405Z,67.18
2022-12-14T07:08:27.752Z,67.09
2022-12-14T07:11:00.511Z,67.19
2022-12-14T07:13:29.783Z,66.91
2022-12-14T07:15:57.355Z,66.41
2022-12-14T07:18:24.288Z,66.61
2022-12-14T07:21:05.894Z,66.56
2022-12-14T07:23:34.303Z,66.60
2022-12-14T07:26:06.668Z,66.90
2022-12-14T07:28:34.465Z,66.86
2022-12-14T07:31:01.683Z,66.67
2022-12-14T07:33:31.215Z,66.65
2022-12-14T07:36:10.343Z,66.71
2022-12-14T07:38:38.251Z,66.49
2022-12-14T07:41:08.394Z,66.25
2022-12-14T07:43:35.262Z,66.14
2022-12-14T07:46:03.342Z,66.01
2022-12-14T07:48:35.333Z,65.97
2022-12-14T07:51:11.238Z,66.31
2022-12-14T07:53:38.291Z,65.95
2022-12-14T07:56:12.653Z,65.89
2022-12-14T07:58:39.541Z,66.01
2022-12-14T08:01:22.590Z,66.00
2022-12-14T08:03:51.031Z,66.07
2022-12-14T08:06:18.509Z,66.09
2022-12-14T08:08:45.503Z,66.04
2022-12-14T08:11:12.792Z,66.06
2022-12-14T08:13:43.409Z,66.17
2022-12-14T08:16:15.354Z,66.22
2022-12-14T08:18:44.709Z,65.71
2022-12-14T08:21:12.406Z,65.55
2022-12-14T08:23:39.347Z,65.37
2022-12-14T08:26:08.521Z,65.14
2022-12-14T08:28:37.773Z,64.98
2022-12-14T08:31:06.229Z,64.90
2022-12-14T08:33:35.971Z,64.85
2022-12-14T08:36:13.162Z,64.89
2022-12-14T08:38:40.678Z,64.99
2022-12-14T08:41:08.969Z,65.15
2022-12-14T08:43:36.049Z,65.25
2022-12-14T08:46:03.008Z,65.20
2022-12-14T08:48:29.834Z,64.85
2022-12-14T08:51:06.577Z,64.64
2022-12-14T08:53:33.937Z,64.62
2022-12-14T08:56:05.355Z,64.64
2022-12-14T08:58:32.201Z,64.81
2022-12-14T09:01:06.412Z,64.97
2022-12-14T09:03:35.528Z,64.86
2022-12-14T09:06:06.893Z,64.58
2022-12-14T09:08:34.214Z,64.94
2022-12-14T09:11:01.539Z,64.76
2022-12-14T09:13:28.856Z,64.85
2022-12-14T09:16:06.707Z,64.95
2022-12-14T09:18:34.572Z,64.68
2022-12-14T09:21:01.491Z,64.61
2022-12-14T09:23:29.130Z,64.70
2022-12-14T09:26:02.884Z,64.66
2022-12-14T09:28:32.838Z,64.44
2022-12-14T09:31:04.861Z,64.76
2022-12-14T09:33:37.381Z,65.24
2022-12-14T09:36:05.774Z,65.38
2022-12-14T09:38:35.827Z,65.08
2022-12-14T09:41:08.009Z,65.16
2022-12-14T09:43:44.084Z,65.06
2022-12-14T09:46:23.440Z,64.45
2022-12-14T09:49:26.170Z,64.25
2022-12-14T09:55:31.912Z,64.01
2022-12-14T09:58:15.796Z,64.00
2022-12-14T10:00:51.618Z,63.93
2022-12-14T10:03:41.346Z,63.82
2022-12-14T10:06:59.716Z,63.58
2022-12-14T10:09:57.463Z,63.48
2022-12-14T10:12:34.536Z,63.20
2022-12-14T10:15:22.848Z,63.25
2022-12-14T10:18:17.547Z,63.16
2022-12-14T10:21:01.883Z,62.89
2022-12-14T10:23:31.449Z,62.54
2022-12-14T10:26:02.999Z,62.21
2022-12-14T10:28:56.389Z,62.10
2022-12-14T10:31:40.996Z,62.23
2022-12-14T10:34:23.122Z,62.04
2022-12-14T10:37:25.831Z,61.45
2022-12-14T10:40:17.757Z,61.68
2022-12-14T10:43:17.945Z,61.31
2022-12-14T10:46:26.459Z,61.33
2022-12-14T10:49:04.882Z,61.00
2022-12-14T10:51:38.559Z,60.57
2022-12-14T10:54:34.194Z,60.09
2022-12-14T10:57:01.329Z,60.20
2022-12-14T10:59:39.549Z,60.63
2022-12-14T11:02:27.682Z,60.39
2022-12-14T11:05:14.906Z,60.92
2022-12-14T11:07:45.825Z,61.21
2022-12-14T11:10:32.538Z,60.96
2022-12-14T11:13:05.880Z,60.42
2022-12-14T11:15:43.987Z,60.27
2022-12-14T11:18:24.345Z,60.13
2022-12-14T11:20:58.070Z,59.60
2022-12-14T11:23:39.352Z,59.63
2022-12-14T11:26:12.619Z,59.72
2022-12-14T11:28:41.563Z,60.11
2022-12-14T11:31:11.393Z,59.81
2022-12-14T11:33:45.408Z,59.20
2022-12-14T11:36:25.171Z,59.07
2022-12-14T11:39:24.991Z,59.08
2022-12-14T11:41:58.370Z,59.20
2022-12-14T11:44:26.388Z,59.08
2022-12-14T11:46:55.291Z,59.11
2022-12-14T11:49:27.960Z,59.18
2022-12-14T11:51:55.600Z,59.63
2022-12-14T11:54:22.408Z,58.53
2022-12-14T11:56:56.471Z,58.07
2022-12-14T11:59:23.339Z,58.00
2022-12-14T12:01:50.447Z,58.46
2022-12-14T12:04:17.592Z,58.56
2022-12-14T12:06:44.534Z,58.15
2022-12-14T12:09:34.914Z,58.36
2022-12-14T12:12:15.282Z,58.15
2022-12-14T12:14:42.436Z,58.13
2022-12-14T12:17:42.154Z,58.00
2022-12-14T12:20:16.161Z,57.65
2022-12-14T12:22:44.572Z,57.56
2022-12-14T12:25:26.520Z,57.44
2022-12-14T12:28:10.620Z,57.00
2022-12-14T12:30:39.761Z,56.96
2022-12-14T12:33:28.843Z,56.68
2022-12-14T12:35:56.610Z,56.92
2022-12-14T12:38:50.481Z,57.26
2022-12-14T12:41:20.428Z,57.56
2022-12-14T12:44:05.468Z,57.63
2022-12-14T12:47:07.228Z,57.94
2022-12-14T12:49:34.126Z,58.39
2022-12-14T12:52:06.581Z,58.87
2022-12-14T12:54:37.921Z,58.90
2022-12-14T12:57:06.105Z,58.89
2022-12-14T12:59:35.085Z,58.89
2022-12-14T13:02:13.113Z,59.13
2022-12-14T13:04:46.538Z,58.70
2022-12-14T13:07:30.308Z,58.64
2022-12-14T13:10:22.671Z,58.70
2022-12-14T13:12:56.315Z,58.95
2022-12-14T13:15:32.866Z,59.50
2022-12-14T13:18:48.770Z,59.58
2022-12-14T13:21:29.673Z,59.49
2022-12-14T13:23:59.570Z,59.68
2022-12-14T13:27:02.949Z,58.96
2022-12-14T13:30:07.391Z,58.27
2022-12-14T13:32:56.611Z,57.91
2022-12-14T13:35:47.980Z,58.04
2022-12-14T13:38:33.572Z,57.72
2022-12-14T13:41:19.132Z,57.86
2022-12-14T13:44:04.551Z,57.96
2022-12-14T13:46:31.583Z,58.06
2022-12-14T13:49:00.973Z,58.45
2022-12-14T13:51:31.908Z,58.59
2022-12-14T13:53:59.672Z,58.96
2022-12-14T13:56:33.645Z,59.26
2022-12-14T13:59:04.660Z,59.30
2022-12-14T14:01:51.624Z,59.58
2022-12-14T14:04:25.197Z,59.54
2022-12-14T14:06:53.474Z,59.58
2022-12-14T14:09:26.457Z,59.78
2022-12-14T14:12:25.570Z,60.08
2022-12-14T14:15:04.759Z,60.24
2022-12-14T14:17:47.083Z,60.58
2022-12-14T14:20:58.593Z,60.67
2022-12-14T14:23:31.388Z,61.15
2022-12-14T14:26:27.440Z,61.40
2022-12-14T14:29:32.056Z,61.55
2022-12-14T14:32:21.661Z,61.54
2022-12-14T14:34:49.437Z,61.38
2022-12-14T14:37:20.420Z,61.25
2022-12-14T14:40:20.692Z,61.22
2022-12-14T14:43:07.865Z,61.38
2022-12-14T14:45:38.731Z,61.71
2022-12-14T14:48:32.573Z,61.67
2022-12-14T14:51:12.072Z,61.80
2022-12-14T14:53:39.530Z,62.04
2022-12-14T14:56:35.373Z,62.18
2022-12-14T14:59:17.478Z,62.43
2022-12-14T15:01:50.509Z,62.72
2022-12-14T15:04:23.686Z,62.96
2022-12-14T15:06:57.006Z,63.55
2022-12-14T15:09:31.113Z,63.85
2022-12-14T15:12:04.518Z,63.81
2022-12-14T15:14:35.099Z,63.99
2022-12-14T15:17:22.274Z,64.08
2022-12-14T15:19:50.206Z,64.21
2022-12-14T15:22:19.763Z,64.42
2022-12-14T15:24:48.867Z,64.67
2022-12-14T15:27:37.447Z,64.88
2022-12-14T15:30:13.435Z,65.20
2022-12-14T15:32:45.896Z,65.29
2022-12-14T15:35:18.751Z,65.65
2022-12-14T15:37:59.544Z,65.73
2022-12-14T15:40:27.883Z,65.95
2022-12-14T15:42:56.274Z,66.17
2022-12-14T15:45:34.721Z,66.27
2022-12-14T15:48:23.957Z,66.47
2022-12-14T15:50:55.272Z,66.54
2022-12-14T15:53:32.892Z,66.55
2022-12-14T15:56:06.762Z,66.55
2022-12-14T15:58:38.970Z,66.71
2022-12-14T16:01:23.182Z,66.87
2022-12-14T16:04:01.793Z,66.89
2022-12-14T16:06:29.133Z,66.91
2022-12-14T16:09:09.038Z,66.83
2022-12-14T16:11:45.856Z,67.02
2022-12-14T16:14:23.843Z,66.97
2022-12-14T16:16:53.245Z,67.22
2022-12-14T16:19:27.733Z,67.33
2022-12-14T16:22:19.151Z,67.31
2022-12-14T16:25:16.920Z,67.26
2022-12-14T16:27:50.176Z,67.25
2022-12-14T16:30:28.953Z,67.21
2022-12-14T16:33:16.353Z,67.28
2022-12-14T16:35:43.391Z,67.40
2022-12-14T16:38:18.475Z,67.35
2022-12-14T16:40:48.494Z,67.37
2022-12-14T16:43:28.837Z,67.73
2022-12-14T16:46:12.859Z,68.03
2022-12-14T16:48:41.990Z,68.08
2022-12-14T16:54:30.537Z,68.55
2022-12-14T16:57:05.821Z,68.32
2022-12-14T16:59:48.511Z,68.29
2022-12-14T17:02:31.648Z,68.32
2022-12-14T17:04:59.912Z,68.10
2022-12-14T17:07:30.730Z,68.10
2022-12-14T17:10:00.495Z,67.85
2022-12-14T17:12:33.254Z,67.95
2022-12-14T17:15:03.414Z,67.95
2022-12-14T17:17:34.217Z,68.16
2022-12-14T17:20:02.732Z,68.42
2022-12-14T17:22:31.560Z,68.42
2022-12-14T17:25:02.739Z,68.60
2022-12-14T17:27:32.417Z,68.62
2022-12-14T17:29:59.431Z,68.72
2022-12-14T17:32:29.847Z,68.91
2022-12-14T17:35:00.352Z,69.00
2022-12-14T17:37:31.135Z,69.12
2022-12-14T17:40:08.789Z,69.37
2022-12-14T17:42:35.851Z,69.44
2022-12-14T17:45:05.220Z,69.59
2022-12-14T17:50:21.775Z,69.22
2022-12-14T17:52:52.339Z,69.44
2022-12-14T17:55:27.797Z,69.50
2022-12-14T17:58:01.187Z,69.36
2022-12-14T18:00:48.608Z,69.48
2022-12-14T18:03:16.776Z,69.60
2022-12-14T18:05:48.851Z,69.62
2022-12-14T18:08:22.653Z,69.78
2022-12-14T18:10:56.337Z,70.28
2022-12-14T18:13:23.914Z,70.38
2022-12-14T18:15:52.138Z,70.39
2022-12-14T18:18:20.977Z,70.42
2022-12-14T18:20:53.101Z,70.20
2022-12-14T18:23:25.823Z,70.18
